createdAt,value
2023-03-12T00:01:21.994Z,98127.56
2023-03-12T00:03:49.307Z,98125.16
2023-03-12T00:06:17.631Z,98126.88
2023-03-12T00:08:44.472Z,98126.69
2023-03-12T00:11:14.098Z,98120.72
2023-03-12T00:13:42.352Z,98119.94
2023-03-12T00:16:12.387Z,98118.06
2023-03-12T00:18:39.525Z,98123.06
2023-03-12T00:21:07.038Z,98114.28
2023-03-12T00:23:33.739Z,98118.16
2023-03-12T00:26:13.882Z,98127.38
2023-03-12T00:28:41.063Z,98111.47
2023-03-12T00:31:19.784Z,98116.78
2023-03-12T00:33:46.782Z,98114.56
2023-03-12T00:36:13.287Z,98114.69
2023-03-12T00:38:39.766Z,98115.25
2023-03-12T00:41:06.310Z,98122.63
2023-03-12T00:43:32.816Z,98127.63
2023-03-12T00:45:59.335Z,98125.69
2023-03-12T00:48:25.929Z,98121.00
2023-03-12T00:50:52.548Z,98123.81
2023-03-12T00:53:19.114Z,98113.66
2023-03-12T00:55:45.602Z,98114.84
2023-03-12T00:58:12.081Z,98120.63
2023-03-12T01:00:38.681Z,98120.16
2023-03-12T01:03:05.305Z,98117.97
2023-03-12T01:05:33.483Z,98119.03
2023-03-12T01:08:01.618Z,98118.53
2023-03-12T01:10:28.299Z,98122.06
2023-03-12T01:12:54.727Z,98114.81
2023-03-12T01:15:21.236Z,98119.63
2023-03-12T01:17:48.079Z,98111.38
2023-03-12T01:20:14.915Z,98118.41
2023-03-12T01:22:41.411Z,98112.94
2023-03-12T01:25:08.424Z,98114.69
2023-03-12T01:27:34.955Z,98115.19
2023-03-12T01:30:01.686Z,98110.88
2023-03-12T01:32:28.249Z,98106.03
2023-03-12T01:34:55.138Z,98108.88
2023-03-12T01:37:21.582Z,98102.88
2023-03-12T01:39:48.114Z,98099.84
2023-03-12T01:42:14.543Z,98101.94
2023-03-12T01:44:50.480Z,98092.16
2023-03-12T01:47:17.142Z,98094.56
2023-03-12T01:49:44.025Z,98092.91
2023-03-12T01:52:15.112Z,98085.84
2023-03-12T01:55:09.309Z,98082.19
2023-03-12T01:57:58.628Z,98077.56
2023-03-12T02:00:27.150Z,98074.75
2023-03-12T02:03:00.364Z,98078.09
2023-03-12T02:05:40.875Z,98076.97
2023-03-12T02:08:07.446Z,98079.47
2023-03-12T02:10:34.068Z,98073.22
2023-03-12T02:13:00.572Z,98068.31
2023-03-12T02:15:27.900Z,98069.69
2023-03-12T02:17:54.540Z,98063.50
2023-03-12T02:20:31.934Z,98062.47
2023-03-12T02:23:16.930Z,98059.78
2023-03-12T02:25:49.520Z,98068.47
2023-03-12T02:28:19.318Z,98063.75
2023-03-12T02:30:51.373Z,98066.34
2023-03-12T02:33:18.729Z,98069.19
2023-03-12T02:35:47.724Z,98070.81
2023-03-12T02:38:33.829Z,98066.06
2023-03-12T02:41:04.029Z,98062.69
2023-03-12T02:43:30.925Z,98061.34
2023-03-12T02:45:57.488Z,98059.03
2023-03-12T02:48:23.927Z,98054.94
2023-03-12T02:50:50.440Z,98053.72
2023-03-12T02:53:16.969Z,98044.81
2023-03-12T02:55:43.634Z,98050.84
2023-03-12T02:58:10.088Z,98053.72
2023-03-12T03:00:37.776Z,98048.00
2023-03-12T03:03:04.307Z,98044.59
2023-03-12T03:05:30.845Z,98040.34
2023-03-12T03:07:57.308Z,98047.75
2023-03-12T03:10:23.783Z,98039.56
2023-03-12T03:12:51.468Z,98043.25
2023-03-12T03:15:18.172Z,98043.78
2023-03-12T03:17:44.811Z,98037.19
2023-03-12T03:20:12.099Z,98035.69
2023-03-12T03:22:39.039Z,98035.28
2023-03-12T03:25:07.332Z,98030.50
2023-03-12T03:27:33.914Z,98025.34
2023-03-12T03:30:00.561Z,98037.50
2023-03-12T03:32:27.476Z,98035.44
2023-03-12T03:34:54.105Z,98036.56
2023-03-12T03:37:20.704Z,98039.44
2023-03-12T03:39:47.315Z,98041.88
2023-03-12T03:42:14.018Z,98050.19
2023-03-12T03:44:41.667Z,98055.66
2023-03-12T03:47:08.215Z,98049.22
2023-03-12T03:49:35.024Z,98050.84
2023-03-12T03:52:01.488Z,98059.88
2023-03-12T03:54:36.375Z,98064.09
2023-03-12T03:57:04.894Z,98063.97
2023-03-12T03:59:31.403Z,98064.09
2023-03-12T04:01:58.094Z,98064.13
2023-03-12T04:04:25.287Z,98062.63
2023-03-12T04:06:51.999Z,98062.06
2023-03-12T04:09:18.796Z,98062.34
2023-03-12T04:11:45.646Z,98062.75
2023-03-12T04:14:13.343Z,98057.41
2023-03-12T04:16:43.599Z,98056.19
2023-03-12T04:19:10.278Z,98052.94
2023-03-12T04:21:39.435Z,98055.47
2023-03-12T04:24:07.906Z,98049.94
2023-03-12T04:26:35.034Z,98041.09
2023-03-12T04:29:03.282Z,98037.38
2023-03-12T04:31:29.926Z,98036.72
2023-03-12T04:33:56.678Z,98031.53
2023-03-12T04:36:24.709Z,98031.72
2023-03-12T04:38:52.646Z,98024.53
2023-03-12T04:41:23.947Z,98012.53
2023-03-12T04:43:56.076Z,98005.81
2023-03-12T04:46:23.284Z,98007.22
2023-03-12T04:48:50.252Z,98011.13
2023-03-12T04:51:17.276Z,98010.63
2023-03-12T04:53:44.323Z,98005.13
2023-03-12T04:56:12.464Z,98000.13
2023-03-12T04:58:39.824Z,97998.59
2023-03-12T05:01:07.424Z,97997.53
2023-03-12T05:03:35.290Z,97995.47
2023-03-12T05:06:01.951Z,97995.88
2023-03-12T05:08:28.436Z,97989.72
2023-03-12T05:10:55.124Z,97983.88
2023-03-12T05:13:23.014Z,97983.59
2023-03-12T05:15:53.396Z,97980.88
2023-03-12T05:18:21.369Z,97984.69
2023-03-12T05:20:58.223Z,97984.69
2023-03-12T05:23:24.692Z,97981.66
2023-03-12T05:25:51.342Z,97975.97
2023-03-12T05:28:17.927Z,97978.53
2023-03-12T05:30:44.570Z,97979.22
2023-03-12T05:33:11.096Z,97978.41
2023-03-12T05:35:37.646Z,97977.72
2023-03-12T05:38:04.317Z,97981.91
2023-03-12T05:40:30.878Z,97985.63
2023-03-12T05:42:57.508Z,97982.59
2023-03-12T05:45:26.141Z,97986.38
2023-03-12T05:47:55.617Z,97982.28
2023-03-12T05:50:22.381Z,97983.34
2023-03-12T05:52:48.863Z,97977.16
2023-03-12T05:55:15.522Z,97972.13
2023-03-12T05:57:42.654Z,97973.22
2023-03-12T06:00:10.052Z,97964.84
2023-03-12T06:02:45.390Z,97971.50
2023-03-12T06:05:12.814Z,97967.28
2023-03-12T06:07:40.266Z,97979.13
2023-03-12T06:10:07.444Z,97981.88
2023-03-12T06:12:33.952Z,97980.53
2023-03-12T06:15:00.700Z,97971.09
2023-03-12T06:17:29.632Z,97974.78
2023-03-12T06:19:56.150Z,97975.63
2023-03-12T06:22:22.680Z,97980.09
2023-03-12T06:24:49.895Z,97983.75
2023-03-12T06:27:17.969Z,97991.38
2023-03-12T06:29:46.390Z,97988.59
2023-03-12T06:32:13.362Z,97987.13
2023-03-12T06:34:39.800Z,97970.53
2023-03-12T06:37:06.420Z,97979.69
2023-03-12T06:39:32.905Z,97977.94
2023-03-12T06:41:59.348Z,97977.50
2023-03-12T06:44:25.769Z,97988.09
2023-03-12T06:46:52.293Z,97988.00
2023-03-12T06:49:18.777Z,97986.88
2023-03-12T06:51:45.252Z,97994.81
2023-03-12T06:54:11.924Z,97988.38
2023-03-12T06:56:38.420Z,97995.78
2023-03-12T06:59:04.995Z,97996.50
2023-03-12T07:01:31.476Z,97987.66
2023-03-12T07:03:57.938Z,97988.47
2023-03-12T07:06:25.480Z,97988.72
2023-03-12T07:08:53.542Z,97988.97
2023-03-12T07:11:20.123Z,97993.91
2023-03-12T07:13:46.681Z,97997.91
2023-03-12T07:16:14.997Z,97991.03
2023-03-12T07:18:42.185Z,97995.69
2023-03-12T07:21:08.777Z,97986.53
2023-03-12T07:23:35.212Z,97990.59
2023-03-12T07:26:04.395Z,97991.34
2023-03-12T07:28:31.048Z,97987.09
2023-03-12T07:31:04.707Z,97994.88
2023-03-12T07:33:31.555Z,97992.94
2023-03-12T07:35:58.486Z,97994.03
2023-03-12T07:38:25.769Z,97999.72
2023-03-12T07:40:54.333Z,97995.97
2023-03-12T07:43:21.845Z,98000.81
2023-03-12T07:45:51.307Z,97996.94
2023-03-12T07:48:19.981Z,98002.53
2023-03-12T07:50:46.933Z,98001.94
2023-03-12T07:53:13.489Z,98004.22
2023-03-12T07:55:40.049Z,97997.53
2023-03-12T07:58:06.847Z,98012.50
2023-03-12T08:00:33.487Z,98004.66
2023-03-12T08:03:00.169Z,98006.16
2023-03-12T08:05:27.045Z,98012.78
2023-03-12T08:07:54.015Z,98011.75
2023-03-12T08:10:21.544Z,98011.28
2023-03-12T08:12:48.211Z,98014.28
2023-03-12T08:15:15.195Z,98004.94
2023-03-12T08:17:41.752Z,98002.97
2023-03-12T08:20:09.936Z,98011.81
2023-03-12T08:22:37.620Z,98009.84
2023-03-12T08:25:04.954Z,98006.59
2023-03-12T08:27:31.674Z,98005.81
2023-03-12T08:29:58.320Z,98007.81
2023-03-12T08:32:28.015Z,98012.22
2023-03-12T08:35:02.233Z,98008.00
2023-03-12T08:37:28.773Z,98015.31
2023-03-12T08:39:55.251Z,98022.50
2023-03-12T08:42:21.758Z,98028.19
2023-03-12T08:44:48.408Z,98029.56
2023-03-12T08:47:14.904Z,98027.81
2023-03-12T08:49:41.467Z,98034.59
2023-03-12T08:52:08.109Z,98034.91
2023-03-12T08:54:34.685Z,98026.59
2023-03-12T08:57:01.463Z,98030.41
2023-03-12T08:59:27.905Z,98031.38
2023-03-12T09:01:54.389Z,98029.88
2023-03-12T09:04:21.023Z,98035.19
2023-03-12T09:06:47.536Z,98039.47
2023-03-12T09:09:14.106Z,98046.31
2023-03-12T09:11:40.935Z,98042.31
2023-03-12T09:14:49.948Z,98041.63
2023-03-12T09:17:02.200Z,98048.94
2023-03-12T09:19:29.163Z,98049.75
2023-03-12T09:21:56.274Z,98053.53
2023-03-12T09:24:23.661Z,98043.31
2023-03-12T09:26:50.356Z,98045.09
2023-03-12T09:29:16.781Z,98045.72
2023-03-12T09:31:43.226Z,98053.66
2023-03-12T09:34:09.758Z,98046.84
2023-03-12T09:36:36.349Z,98046.56
2023-03-12T09:39:03.419Z,98050.19
2023-03-12T09:41:33.947Z,98055.16
2023-03-12T09:44:12.191Z,98060.66
2023-03-12T09:46:44.418Z,98055.31
2023-03-12T09:49:20.047Z,98053.84
2023-03-12T09:51:52.472Z,98064.09
2023-03-12T09:54:28.428Z,98067.03
2023-03-12T09:56:58.764Z,98068.41
2023-03-12T09:59:25.204Z,98075.69
2023-03-12T10:01:57.374Z,98081.59
2023-03-12T10:04:56.380Z,98077.09
2023-03-12T10:07:35.346Z,98078.84
2023-03-12T10:10:23.591Z,98091.09
2023-03-12T10:13:14.338Z,98089.78
2023-03-12T10:16:08.610Z,98083.44
2023-03-12T10:18:48.395Z,98092.91
2023-03-12T10:21:25.230Z,98084.91
2023-03-12T10:24:25.131Z,98088.66
2023-03-12T10:26:55.420Z,98088.81
2023-03-12T10:29:26.076Z,98089.78
2023-03-12T10:31:59.069Z,98088.97
2023-03-12T10:34:37.521Z,98088.47
2023-03-12T10:37:29.876Z,98081.31
2023-03-12T10:39:56.645Z,98081.00
2023-03-12T10:42:26.625Z,98093.88
2023-03-12T10:45:15.003Z,98087.84
2023-03-12T10:47:43.147Z,98090.16
2023-03-12T10:50:14.073Z,98089.47
2023-03-12T10:52:41.247Z,98099.59
2023-03-12T10:55:16.401Z,98102.00
2023-03-12T10:57:42.946Z,98101.44
2023-03-12T11:00:13.593Z,98101.16
2023-03-12T11:02:43.495Z,98101.63
2023-03-12T11:05:25.513Z,98101.19
2023-03-12T11:07:52.507Z,98102.25
2023-03-12T11:10:37.341Z,98088.38
2023-03-12T11:13:20.782Z,98098.44
2023-03-12T11:15:47.831Z,98092.38
2023-03-12T11:18:29.784Z,98095.28
2023-03-12T11:20:58.024Z,98094.03
2023-03-12T11:23:30.537Z,98084.75
2023-03-12T11:26:19.337Z,98087.81
2023-03-12T11:28:52.326Z,98088.78
2023-03-12T11:31:27.135Z,98089.34
2023-03-12T11:33:57.784Z,98084.53
2023-03-12T11:36:45.110Z,98073.66
2023-03-12T11:39:17.724Z,98068.94
2023-03-12T11:42:08.004Z,98062.19
2023-03-12T11:45:04.308Z,98060.19
2023-03-12T11:47:43.023Z,98055.06
2023-03-12T11:50:21.011Z,98044.66
2023-03-12T11:52:55.747Z,98048.06
2023-03-12T11:55:55.384Z,98043.34
2023-03-12T11:58:39.048Z,98050.38
2023-03-12T12:01:08.265Z,98050.44
2023-03-12T12:03:53.083Z,98049.91
2023-03-12T12:06:28.562Z,98056.09
2023-03-12T12:09:10.210Z,98059.16
2023-03-12T12:11:57.988Z,98066.97
2023-03-12T12:15:01.552Z,98056.53
2023-03-12T12:17:54.143Z,98048.50
2023-03-12T12:20:23.544Z,98041.69
2023-03-12T12:23:08.797Z,98027.94
2023-03-12T12:25:46.780Z,98018.41
2023-03-12T12:28:41.060Z,98015.97
2023-03-12T12:31:10.541Z,98021.84
2023-03-12T12:33:58.310Z,98040.63
2023-03-12T12:36:28.051Z,98033.41
2023-03-12T12:39:23.907Z,98028.53
2023-03-12T12:41:58.953Z,98027.38
2023-03-12T12:44:30.935Z,98018.69
2023-03-12T12:47:03.758Z,98011.44
2023-03-12T12:49:41.502Z,98015.09
2023-03-12T12:52:12.814Z,98011.31
2023-03-12T12:54:48.295Z,97987.66
2023-03-12T12:57:23.091Z,97986.06
2023-03-12T13:00:10.707Z,97983.28
2023-03-12T13:02:40.961Z,97989.88
2023-03-12T13:05:26.884Z,97988.63
2023-03-12T13:07:53.496Z,97981.72
2023-03-12T13:10:57.458Z,97980.63
2023-03-12T13:13:33.024Z,97967.97
2023-03-12T13:16:26.935Z,97965.88
2023-03-12T13:18:59.164Z,97963.06
2023-03-12T13:21:59.724Z,97957.97
2023-03-12T13:24:29.664Z,97949.75
2023-03-12T13:27:04.502Z,97954.41
2023-03-12T13:29:33.673Z,97950.03
2023-03-12T13:32:00.207Z,97948.00
2023-03-12T13:34:28.151Z,97947.28
2023-03-12T13:37:02.084Z,97953.75
2023-03-12T13:39:34.487Z,97964.97
2023-03-12T13:42:21.801Z,97962.63
2023-03-12T13:44:49.584Z,97972.91
2023-03-12T13:47:41.961Z,97962.09
2023-03-12T13:50:15.302Z,97964.56
2023-03-12T13:52:55.956Z,97964.56
2023-03-12T13:55:28.315Z,97979.44
2023-03-12T13:58:23.468Z,97974.75
2023-03-12T14:01:02.372Z,97992.00
2023-03-12T14:03:43.796Z,97981.38
2023-03-12T14:06:32.290Z,97983.88
2023-03-12T14:09:10.879Z,97982.56
2023-03-12T14:11:53.265Z,97987.34
2023-03-12T14:14:25.715Z,97991.78
2023-03-12T14:17:01.818Z,97986.44
2023-03-12T14:19:31.268Z,97976.31
2023-03-12T14:22:04.052Z,97968.66
2023-03-12T14:24:42.313Z,97967.34
2023-03-12T14:27:17.642Z,97967.72
2023-03-12T14:29:50.624Z,97978.56
2023-03-12T14:32:24.249Z,97986.66
2023-03-12T14:35:19.012Z,97998.25
2023-03-12T14:38:06.396Z,97989.69
2023-03-12T14:40:48.127Z,97989.06
2023-03-12T14:43:30.561Z,97974.59
2023-03-12T14:46:02.509Z,97968.03
2023-03-12T14:48:34.828Z,97959.41
2023-03-12T14:51:04.014Z,97954.94
2023-03-12T14:53:33.655Z,97960.22
2023-03-12T14:56:00.512Z,97964.34
2023-03-12T14:58:27.311Z,97955.19
2023-03-12T15:00:57.875Z,97953.50
2023-03-12T15:03:25.029Z,97943.16
2023-03-12T15:05:52.478Z,97946.22
2023-03-12T15:08:19.804Z,97938.44
2023-03-12T15:10:56.985Z,97954.22
2023-03-12T15:13:26.232Z,97947.91
2023-03-12T15:15:54.824Z,97953.84
2023-03-12T15:18:27.067Z,97947.75
2023-03-12T15:20:55.399Z,97944.81
2023-03-12T15:23:24.211Z,97960.84
2023-03-12T15:26:12.026Z,97958.03
2023-03-12T15:28:39.311Z,97962.56
2023-03-12T15:31:07.688Z,97962.56
2023-03-12T15:33:34.856Z,97952.84
2023-03-12T15:36:19.988Z,97958.13
2023-03-12T15:38:49.721Z,97960.63
2023-03-12T15:41:21.437Z,97951.31
2023-03-12T15:43:53.105Z,97951.56
2023-03-12T15:46:19.905Z,97944.13
2023-03-12T15:48:59.224Z,97935.66
2023-03-12T15:51:32.229Z,97945.03
2023-03-12T15:54:04.214Z,97943.56
2023-03-12T15:56:33.557Z,97953.56
2023-03-12T15:59:18.797Z,97952.38
2023-03-12T16:01:56.530Z,97943.44
2023-03-12T16:04:24.460Z,97945.72
2023-03-12T16:06:52.748Z,97948.13
2023-03-12T16:09:27.287Z,97936.16
2023-03-12T16:11:55.220Z,97952.22
2023-03-12T16:14:30.976Z,97949.78
2023-03-12T16:16:57.413Z,97961.38
2023-03-12T16:19:24.626Z,97955.09
2023-03-12T16:21:51.099Z,97953.31
2023-03-12T16:24:17.629Z,97955.97
2023-03-12T16:26:56.718Z,97962.03
2023-03-12T16:29:31.806Z,97963.94
2023-03-12T16:31:58.382Z,97953.59
2023-03-12T16:34:25.357Z,97948.16
2023-03-12T16:36:52.013Z,97945.75
2023-03-12T16:39:19.024Z,97955.25
2023-03-12T16:41:45.985Z,97958.31
2023-03-12T16:44:16.784Z,97964.00
2023-03-12T16:46:44.891Z,97970.91
2023-03-12T16:49:16.922Z,97973.75
2023-03-12T16:51:44.029Z,97966.63
2023-03-12T16:54:12.165Z,97965.63
2023-03-12T16:56:42.800Z,97975.56
2023-03-12T16:59:19.509Z,97967.88
2023-03-12T17:01:46.037Z,97971.94
2023-03-12T17:04:12.520Z,97978.25
2023-03-12T17:06:40.423Z,97974.56
2023-03-12T17:09:08.412Z,97982.72
2023-03-12T17:11:36.355Z,97993.06
2023-03-12T17:14:07.937Z,97996.28
2023-03-12T17:16:34.383Z,97999.16
2023-03-12T17:19:01.076Z,97997.31
2023-03-12T17:21:27.844Z,97995.09
2023-03-12T17:23:54.309Z,97990.66
2023-03-12T17:26:21.524Z,97998.75
2023-03-12T17:28:48.089Z,97999.53
2023-03-12T17:31:14.592Z,97993.06
2023-03-12T17:33:42.956Z,97992.03
2023-03-12T17:36:09.846Z,98001.16
2023-03-12T17:38:37.061Z,97998.94
2023-03-12T17:41:09.381Z,98001.19
2023-03-12T17:43:38.120Z,98008.28
2023-03-12T17:46:09.593Z,98020.84
2023-03-12T17:48:36.751Z,98024.28
2023-03-12T17:51:08.333Z,98037.28
2023-03-12T17:53:34.831Z,98040.13
2023-03-12T17:56:01.529Z,98042.56
2023-03-12T17:58:28.047Z,98040.09
2023-03-12T18:00:54.516Z,98035.44
2023-03-12T18:03:21.020Z,98035.88
2023-03-12T18:05:50.062Z,98030.81
2023-03-12T18:08:16.620Z,98020.25
2023-03-12T18:10:43.237Z,98020.88
2023-03-12T18:13:10.354Z,98026.34
2023-03-12T18:15:37.135Z,98023.09
2023-03-12T18:18:03.781Z,98025.53
2023-03-12T18:20:38.592Z,98022.88
2023-03-12T18:23:06.009Z,98021.88
2023-03-12T18:25:32.502Z,98030.81
2023-03-12T18:27:58.949Z,98030.19
2023-03-12T18:30:25.774Z,98023.91
2023-03-12T18:32:52.276Z,98026.53
2023-03-12T18:35:18.794Z,98029.59
2023-03-12T18:37:46.013Z,98032.22
2023-03-12T18:40:12.811Z,98028.97
2023-03-12T18:42:44.187Z,98029.59
2023-03-12T18:45:11.985Z,98027.72
2023-03-12T18:47:42.015Z,98027.13
2023-03-12T18:50:09.728Z,98036.03
2023-03-12T18:52:36.233Z,98028.31
2023-03-12T18:55:04.441Z,98028.53
2023-03-12T18:57:31.422Z,98032.00
2023-03-12T18:59:59.280Z,98024.88
2023-03-12T19:02:26.098Z,98022.25
2023-03-12T19:04:55.510Z,98033.78
2023-03-12T19:07:22.644Z,98034.97
2023-03-12T19:09:49.129Z,98033.19
2023-03-12T19:12:15.605Z,98042.91
2023-03-12T19:14:42.063Z,98042.31
2023-03-12T19:17:08.567Z,98039.84
2023-03-12T19:19:35.026Z,98040.09
2023-03-12T19:22:01.453Z,98037.66
2023-03-12T19:24:27.948Z,98036.63
2023-03-12T19:26:54.403Z,98036.81
2023-03-12T19:29:20.895Z,98039.66
2023-03-12T19:31:47.410Z,98041.25
2023-03-12T19:34:13.886Z,98036.03
2023-03-12T19:36:40.391Z,98029.09
2023-03-12T19:39:15.319Z,98036.59
2023-03-12T19:41:47.253Z,98025.88
2023-03-12T19:44:13.733Z,98029.31
2023-03-12T19:46:42.927Z,98033.53
2023-03-12T19:49:09.517Z,98029.91
2023-03-12T19:51:36.067Z,98035.13
2023-03-12T19:54:02.538Z,98033.34
2023-03-12T19:56:29.471Z,98030.28
2023-03-12T19:58:55.903Z,98034.53
2023-03-12T20:01:22.945Z,98031.84
2023-03-12T20:03:49.401Z,98031.44
2023-03-12T20:06:15.903Z,98026.06
2023-03-12T20:08:42.377Z,98025.88
2023-03-12T20:11:10.515Z,98031.94
2023-03-12T20:13:40.188Z,98018.16
2023-03-12T20:16:07.682Z,98016.75
2023-03-12T20:18:34.285Z,98014.09
2023-03-12T20:21:00.784Z,98021.31
2023-03-12T20:23:27.214Z,98013.34
2023-03-12T20:25:53.675Z,98019.53
2023-03-12T20:28:20.172Z,98019.91
2023-03-12T20:30:46.643Z,98015.88
2023-03-12T20:33:13.715Z,98013.88
2023-03-12T20:35:40.324Z,98010.84
2023-03-12T20:38:07.083Z,98010.44
2023-03-12T20:40:33.791Z,97992.81
2023-03-12T20:43:04.585Z,97994.03
2023-03-12T20:45:33.203Z,97997.06
2023-03-12T20:48:00.530Z,97991.63
2023-03-12T20:50:27.580Z,97985.53
2023-03-12T20:52:54.198Z,97996.06
2023-03-12T20:55:20.653Z,97988.91
2023-03-12T20:57:47.108Z,97988.03
2023-03-12T21:00:13.854Z,97986.06
2023-03-12T21:02:40.385Z,97993.97
2023-03-12T21:05:07.146Z,97979.78
2023-03-12T21:07:33.772Z,97982.25
2023-03-12T21:10:00.202Z,97991.75
2023-03-12T21:12:26.633Z,97987.91
2023-03-12T21:14:53.095Z,97980.00
2023-03-12T21:17:19.678Z,97979.19
2023-03-12T21:19:46.448Z,97971.84
2023-03-12T21:22:13.048Z,97972.25
2023-03-12T21:24:39.555Z,97975.94
2023-03-12T21:27:06.081Z,97969.47
2023-03-12T21:29:32.517Z,97962.41
2023-03-12T21:31:58.985Z,97964.34
2023-03-12T21:34:29.402Z,97964.94
2023-03-12T21:36:56.720Z,97953.81
2023-03-12T21:39:23.596Z,97953.66
2023-03-12T21:41:50.064Z,97949.00
2023-03-12T21:44:16.815Z,97945.38
2023-03-12T21:46:43.432Z,97941.50
2023-03-12T21:49:10.029Z,97942.31
2023-03-12T21:51:39.062Z,97940.28
2023-03-12T21:54:06.507Z,97937.47
2023-03-12T21:56:33.041Z,97934.22
2023-03-12T21:58:59.731Z,97936.25
2023-03-12T22:01:26.795Z,97933.19
2023-03-12T22:03:54.414Z,97931.38
2023-03-12T22:06:21.365Z,97930.75
2023-03-12T22:08:52.202Z,97931.34
2023-03-12T22:11:19.099Z,97935.78
2023-03-12T22:13:45.576Z,97937.41
2023-03-12T22:16:13.729Z,97931.59
2023-03-12T22:18:43.045Z,97925.06
2023-03-12T22:21:15.473Z,97924.78
2023-03-12T22:23:42.060Z,97918.94
2023-03-12T22:26:08.915Z,97917.53
2023-03-12T22:28:35.863Z,97920.34
2023-03-12T22:31:05.582Z,97914.25
2023-03-12T22:33:33.729Z,97915.69
2023-03-12T22:36:00.222Z,97916.31
2023-03-12T22:38:26.767Z,97908.81
2023-03-12T22:40:55.512Z,97911.22
2023-03-12T22:43:22.346Z,97903.03
2023-03-12T22:45:53.557Z,97912.53
2023-03-12T22:48:20.211Z,97913.50
2023-03-12T22:50:53.556Z,97916.94
2023-03-12T22:53:20.141Z,97906.25
2023-03-12T22:55:46.577Z,97902.59
2023-03-12T22:58:14.201Z,97907.06
2023-03-12T23:00:40.630Z,97904.38
2023-03-12T23:03:07.151Z,97899.56
2023-03-12T23:05:34.514Z,97908.91
2023-03-12T23:08:01.048Z,97902.63
2023-03-12T23:10:27.500Z,97914.38
2023-03-12T23:12:54.082Z,97897.34
2023-03-12T23:15:22.597Z,97892.31
2023-03-12T23:17:49.217Z,97893.91
2023-03-12T23:20:15.789Z,97891.88
2023-03-12T23:22:42.211Z,97887.03
2023-03-12T23:25:09.108Z,97889.84
2023-03-12T23:27:35.571Z,97883.78
2023-03-12T23:30:02.008Z,97878.31
2023-03-12T23:32:28.490Z,97882.38
2023-03-12T23:34:55.285Z,97871.19
2023-03-12T23:37:21.829Z,97864.13
2023-03-12T23:39:54.384Z,97863.31
2023-03-12T23:42:21.609Z,97858.47
2023-03-12T23:44:48.043Z,97859.66
2023-03-12T23:47:14.500Z,97857.25
2023-03-12T23:49:40.991Z,97848.72
2023-03-12T23:52:07.403Z,97852.16
2023-03-12T23:54:33.930Z,97850.53
2023-03-12T23:57:00.363Z,97843.66
2023-03-12T23:59:26.996Z,97835.75
